sensor_id;sensor_type;location;lat;lon;timestamp;pressure;altitude;pressure_sealevel;temperature
74485;BMP280;62942;52.462;10.846;2023-03-01T00:00:49;102330;;;
74485;BMP280;62942;52.462;10.846;2023-03-01T00:01:59;102330;;;
74485;BMP280;62942;52.462;10.846;2023-03-01T00:03:09;102330;;;
74485;BMP280;62942;52.462;10.846;2023-03-01T00:04:19;102330;;;
74485;BMP280;62942;52.462;10.846;2023-03-01T00:05:29;102330;;;
74485;BMP280;62942;52.462;10.846;2023-03-01T00:06:39;102340;;;
74485;BMP280;62942;52.462;10.846;2023-03-01T00:07:51;102340;;;
74485;BMP280;62942;52.462;10.846;2023-03-01T00:08:59;102340;;;
74485;BMP280;62942;52.462;10.846;2023-03-01T00:10:10;102340;;;
74485;BMP280;62942;52.462;10.846;2023-03-01T00:11:20;102340;;;
74485;BMP280;62942;52.462;10.846;2023-03-01T00:12:19;102320;;;
74485;BMP280;62942;52.462;10.846;2023-03-01T00:13:29;102320;;;
74485;BMP280;62942;52.462;10.846;2023-03-01T00:14:39;102320;;;
74485;BMP280;62942;52.462;10.846;2023-03-01T00:15:40;102320;;;
74485;BMP280;62942;52.462;10.846;2023-03-01T00:16:49;102310;;;
74485;BMP280;62942;52.462;10.846;2023-03-01T00:17:49;102320;;;
74485;BMP280;62942;52.462;10.846;2023-03-01T00:18:59;102310;;;
74485;BMP280;62942;52.462;10.846;2023-03-01T00:20:10;102310;;;
74485;BMP280;62942;52.462;10.846;2023-03-01T00:21:19;102310;;;
74485;BMP280;62942;52.462;10.846;2023-03-01T00:22:29;102310;;;
74485;BMP280;62942;52.462;10.846;2023-03-01T00:23:39;102310;;;
74485;BMP280;62942;52.462;10.846;2023-03-01T00:24:49;102310;;;
74485;BMP280;62942;52.462;10.846;2023-03-01T00:25:59;102300;;;
74485;BMP280;62942;52.462;10.846;2023-03-01T00:27:09;102300;;;
74485;BMP280;62942;52.462;10.846;2023-03-01T00:28:09;102310;;;
74485;BMP280;62942;52.462;10.846;2023-03-01T00:29:19;102310;;;
74485;BMP280;62942;52.462;10.846;2023-03-01T00:30:29;102320;;;
74485;BMP280;62942;52.462;10.846;2023-03-01T00:31:30;102310;;;
74485;BMP280;62942;52.462;10.846;2023-03-01T00:32:39;102320;;;
74485;BMP280;62942;52.462;10.846;2023-03-01T00:33:51;102310;;;
74485;BMP280;62942;52.462;10.846;2023-03-01T00:34:59;102300;;;
74485;BMP280;62942;52.462;10.846;2023-03-01T00:35:59;102300;;;
74485;BMP280;62942;52.462;10.846;2023-03-01T00:37:09;102310;;;
74485;BMP280;62942;52.462;10.846;2023-03-01T00:38:19;102310;;;
74485;BMP280;62942;52.462;10.846;2023-03-01T00:39:19;102310;;;
74485;BMP280;62942;52.462;10.846;2023-03-01T00:40:30;102310;;;
74485;BMP280;62942;52.462;10.846;2023-03-01T00:41:29;102310;;;
74485;BMP280;62942;52.462;10.846;2023-03-01T00:42:29;102310;;;
74485;BMP280;62942;52.462;10.846;2023-03-01T00:43:40;102300;;;
74485;BMP280;62942;52.462;10.846;2023-03-01T00:44:49;102310;;;
74485;BMP280;62942;52.462;10.846;2023-03-01T00:45:49;102310;;;
74485;BMP280;62942;52.462;10.846;2023-03-01T00:46:59;102310;;;
74485;BMP280;62942;52.462;10.846;2023-03-01T00:48:09;102310;;;
74485;BMP280;62942;52.462;10.846;2023-03-01T00:49:19;102310;;;
74485;BMP280;62942;52.462;10.846;2023-03-01T00:50:29;102320;;;
74485;BMP280;62942;52.462;10.846;2023-03-01T00:51:39;102320;;;
74485;BMP280;62942;52.462;10.846;2023-03-01T00:52:51;102320;;;
74485;BMP280;62942;52.462;10.846;2023-03-01T00:54:00;102310;;;
74485;BMP280;62942;52.462;10.846;2023-03-01T00:55:10;102300;;;
74485;BMP280;62942;52.462;10.846;2023-03-01T00:56:19;102300;;;
74485;BMP280;62942;52.462;10.846;2023-03-01T00:57:19;102310;;;
74485;BMP280;62942;52.462;10.846;2023-03-01T00:58:19;102300;;;
74485;BMP280;62942;52.462;10.846;2023-03-01T00:59:19;102300;;;
74485;BMP280;62942;52.462;10.846;2023-03-01T01:00:20;102300;;;
74485;BMP280;62942;52.462;10.846;2023-03-01T01:01:30;102300;;;
74485;BMP280;62942;52.462;10.846;2023-03-01T01:02:39;102300;;;
74485;BMP280;62942;52.462;10.846;2023-03-01T01:03:39;102290;;;
74485;BMP280;62942;52.462;10.846;2023-03-01T01:04:39;102290;;;
74485;BMP280;62942;52.462;10.846;2023-03-01T01:05:49;102290;;;
74485;BMP280;62942;52.462;10.846;2023-03-01T01:06:59;102290;;;
74485;BMP280;62942;52.462;10.846;2023-03-01T01:08:09;102290;;;
74485;BMP280;62942;52.462;10.846;2023-03-01T01:09:19;102290;;;
74485;BMP280;62942;52.462;10.846;2023-03-01T01:10:29;102290;;;
74485;BMP280;62942;52.462;10.846;2023-03-01T01:11:39;102290;;;
74485;BMP280;62942;52.462;10.846;2023-03-01T01:12:49;102290;;;
74485;BMP280;62942;52.462;10.846;2023-03-01T01:13:59;102290;;;
74485;BMP280;62942;52.462;10.846;2023-03-01T01:14:59;102280;;;
74485;BMP280;62942;52.462;10.846;2023-03-01T01:16:00;102280;;;
74485;BMP280;62942;52.462;10.846;2023-03-01T01:17:09;102290;;;
74485;BMP280;62942;52.462;10.846;2023-03-01T01:18:09;102280;;;
74485;BMP280;62942;52.462;10.846;2023-03-01T01:19:19;102280;;;
74485;BMP280;62942;52.462;10.846;2023-03-01T01:20:29;102290;;;
74485;BMP280;62942;52.462;10.846;2023-03-01T01:21:39;102280;;;
74485;BMP280;62942;52.462;10.846;2023-03-01T01:22:49;102290;;;
74485;BMP280;62942;52.462;10.846;2023-03-01T01:23:59;102290;;;
74485;BMP280;62942;52.462;10.846;2023-03-01T01:25:09;102290;;;
74485;BMP280;62942;52.462;10.846;2023-03-01T01:26:20;102290;;;
74485;BMP280;62942;52.462;10.846;2023-03-01T01:27:29;102290;;;
74485;BMP280;62942;52.462;10.846;2023-03-01T01:28:39;102290;;;
74485;BMP280;62942;52.462;10.846;2023-03-01T01:29:49;102290;;;
74485;BMP280;62942;52.462;10.846;2023-03-01T01:30:49;102290;;;
74485;BMP280;62942;52.462;10.846;2023-03-01T01:31:49;102280;;;
74485;BMP280;62942;52.462;10.846;2023-03-01T01:32:49;102290;;;
74485;BMP280;62942;52.462;10.846;2023-03-01T01:33:59;102280;;;
74485;BMP280;62942;52.462;10.846;2023-03-01T01:34:59;102290;;;
74485;BMP280;62942;52.462;10.846;2023-03-01T01:36:09;102300;;;
74485;BMP280;62942;52.462;10.846;2023-03-01T01:37:19;102300;;;
74485;BMP280;62942;52.462;10.846;2023-03-01T01:38:29;102290;;;
74485;BMP280;62942;52.462;10.846;2023-03-01T01:39:39;102300;;;
74485;BMP280;62942;52.462;10.846;2023-03-01T01:40:42;102300;;;
74485;BMP280;62942;52.462;10.846;2023-03-01T01:41:49;102290;;;
74485;BMP280;62942;52.462;10.846;2023-03-01T01:42:59;102300;;;
74485;BMP280;62942;52.462;10.846;2023-03-01T01:44:16;102300;;;
74485;BMP280;62942;52.462;10.846;2023-03-01T01:45:41;102290;;;
74485;BMP280;62942;52.462;10.846;2023-03-01T01:46:21;102290;;;
74485;BMP280;62942;52.462;10.846;2023-03-01T01:47:20;102280;;;
74485;BMP280;62942;52.462;10.846;2023-03-01T01:48:32;102280;;;
74485;BMP280;62942;52.462;10.846;2023-03-01T01:49:40;102290;;;
74485;BMP280;62942;52.462;10.846;2023-03-01T01:50:51;102280;;;
74485;BMP280;62942;52.462;10.846;2023-03-01T01:52:01;102280;;;
74485;BMP280;62942;52.462;10.846;2023-03-01T01:53:11;102290;;;
74485;BMP280;62942;52.462;10.846;2023-03-01T01:54:20;102280;;;
74485;BMP280;62942;52.462;10.846;2023-03-01T01:55:20;102280;;;
74485;BMP280;62942;52.462;10.846;2023-03-01T01:56:29;102280;;;
74485;BMP280;62942;52.462;10.846;2023-03-01T01:57:40;102280;;;
74485;BMP280;62942;52.462;10.846;2023-03-01T01:58:39;102280;;;
74485;BMP280;62942;52.462;10.846;2023-03-01T01:59:50;102290;;;
74485;BMP280;62942;52.462;10.846;2023-03-01T02:00:59;102280;;;
74485;BMP280;62942;52.462;10.846;2023-03-01T02:02:09;102290;;;
74485;BMP280;62942;52.462;10.846;2023-03-01T02:03:20;102280;;;
74485;BMP280;62942;52.462;10.846;2023-03-01T02:04:20;102280;;;
74485;BMP280;62942;52.462;10.846;2023-03-01T02:05:32;102280;;;
74485;BMP280;62942;52.462;10.846;2023-03-01T02:06:41;102270;;;
74485;BMP280;62942;52.462;10.846;2023-03-01T02:07:49;102270;;;
74485;BMP280;62942;52.462;10.846;2023-03-01T02:09:00;102270;;;
74485;BMP280;62942;52.462;10.846;2023-03-01T02:09:59;102270;;;
74485;BMP280;62942;52.462;10.846;2023-03-01T02:11:09;102270;;;
74485;BMP280;62942;52.462;10.846;2023-03-01T02:12:20;102270;;;
74485;BMP280;62942;52.462;10.846;2023-03-01T02:13:19;102270;;;
74485;BMP280;62942;52.462;10.846;2023-03-01T02:14:29;102260;;;
74485;BMP280;62942;52.462;10.846;2023-03-01T02:15:40;102260;;;
74485;BMP280;62942;52.462;10.846;2023-03-01T02:16:49;102260;;;
74485;BMP280;62942;52.462;10.846;2023-03-01T02:17:59;102260;;;
74485;BMP280;62942;52.462;10.846;2023-03-01T02:19:09;102250;;;
74485;BMP280;62942;52.462;10.846;2023-03-01T02:20:20;102260;;;
74485;BMP280;62942;52.462;10.846;2023-03-01T02:21:30;102250;;;
74485;BMP280;62942;52.462;10.846;2023-03-01T02:22:30;102250;;;
74485;BMP280;62942;52.462;10.846;2023-03-01T02:23:39;102250;;;
74485;BMP280;62942;52.462;10.846;2023-03-01T02:24:53;102250;;;
74485;BMP280;62942;52.462;10.846;2023-03-01T02:25:50;102250;;;
74485;BMP280;62942;52.462;10.846;2023-03-01T02:26:59;102250;;;
74485;BMP280;62942;52.462;10.846;2023-03-01T02:29:19;102250;;;
74485;BMP280;62942;52.462;10.846;2023-03-01T02:30:29;102250;;;
74485;BMP280;62942;52.462;10.846;2023-03-01T02:31:39;102240;;;
74485;BMP280;62942;52.462;10.846;2023-03-01T02:32:49;102240;;;
74485;BMP280;62942;52.462;10.846;2023-03-01T02:33:49;102240;;;
74485;BMP280;62942;52.462;10.846;2023-03-01T02:34:59;102240;;;
74485;BMP280;62942;52.462;10.846;2023-03-01T02:36:10;102230;;;
74485;BMP280;62942;52.462;10.846;2023-03-01T02:37:19;102230;;;
74485;BMP280;62942;52.462;10.846;2023-03-01T02:38:29;102230;;;
74485;BMP280;62942;52.462;10.846;2023-03-01T02:39:39;102230;;;
74485;BMP280;62942;52.462;10.846;2023-03-01T02:40:50;102230;;;
74485;BMP280;62942;52.462;10.846;2023-03-01T02:41:59;102220;;;
74485;BMP280;62942;52.462;10.846;2023-03-01T02:42:59;102230;;;
74485;BMP280;62942;52.462;10.846;2023-03-01T02:44:09;102210;;;
74485;BMP280;62942;52.462;10.846;2023-03-01T02:45:09;102210;;;
74485;BMP280;62942;52.462;10.846;2023-03-01T02:46:13;102210;;;
74485;BMP280;62942;52.462;10.846;2023-03-01T02:47:19;102200;;;
74485;BMP280;62942;52.462;10.846;2023-03-01T02:48:38;102210;;;
74485;BMP280;62942;52.462;10.846;2023-03-01T02:49:39;102210;;;
74485;BMP280;62942;52.462;10.846;2023-03-01T02:50:45;102200;;;
74485;BMP280;62942;52.462;10.846;2023-03-01T02:51:56;102210;;;
74485;BMP280;62942;52.462;10.846;2023-03-01T02:53:00;102200;;;
74485;BMP280;62942;52.462;10.846;2023-03-01T02:54:04;102210;;;
74485;BMP280;62942;52.462;10.846;2023-03-01T02:55:10;102200;;;
74485;BMP280;62942;52.462;10.846;2023-03-01T02:56:19;102210;;;
74485;BMP280;62942;52.462;10.846;2023-03-01T02:57:30;102210;;;
74485;BMP280;62942;52.462;10.846;2023-03-01T02:58:29;102210;;;
74485;BMP280;62942;52.462;10.846;2023-03-01T02:59:39;102200;;;
74485;BMP280;62942;52.462;10.846;2023-03-01T03:00:49;102200;;;
74485;BMP280;62942;52.462;10.846;2023-03-01T03:01:59;102200;;;
74485;BMP280;62942;52.462;10.846;2023-03-01T03:03:09;102200;;;
74485;BMP280;62942;52.462;10.846;2023-03-01T03:04:19;102200;;;
74485;BMP280;62942;52.462;10.846;2023-03-01T03:05:30;102200;;;
74485;BMP280;62942;52.462;10.846;2023-03-01T03:06:39;102200;;;
74485;BMP280;62942;52.462;10.846;2023-03-01T03:07:49;102200;;;
74485;BMP280;62942;52.462;10.846;2023-03-01T03:08:49;102200;;;
74485;BMP280;62942;52.462;10.846;2023-03-01T03:09:49;102200;;;
74485;BMP280;62942;52.462;10.846;2023-03-01T03:10:59;102200;;;
74485;BMP280;62942;52.462;10.846;2023-03-01T03:12:09;102200;;;
74485;BMP280;62942;52.462;10.846;2023-03-01T03:13:10;102200;;;
74485;BMP280;62942;52.462;10.846;2023-03-01T03:14:09;102200;;;
74485;BMP280;62942;52.462;10.846;2023-03-01T03:15:20;102200;;;
74485;BMP280;62942;52.462;10.846;2023-03-01T03:16:29;102200;;;
74485;BMP280;62942;52.462;10.846;2023-03-01T03:17:29;102210;;;
74485;BMP280;62942;52.462;10.846;2023-03-01T03:18:39;102200;;;
74485;BMP280;62942;52.462;10.846;2023-03-01T03:19:49;102200;;;
74485;BMP280;62942;52.462;10.846;2023-03-01T03:20:59;102210;;;
74485;BMP280;62942;52.462;10.846;2023-03-01T03:22:09;102200;;;
74485;BMP280;62942;52.462;10.846;2023-03-01T03:23:19;102210;;;
74485;BMP280;62942;52.462;10.846;2023-03-01T03:24:19;102210;;;
74485;BMP280;62942;52.462;10.846;2023-03-01T03:25:19;102210;;;
74485;BMP280;62942;52.462;10.846;2023-03-01T03:26:29;102210;;;
74485;BMP280;62942;52.462;10.846;2023-03-01T03:27:40;102200;;;
74485;BMP280;62942;52.462;10.846;2023-03-01T03:28:39;102200;;;
74485;BMP280;62942;52.462;10.846;2023-03-01T03:29:49;102210;;;
74485;BMP280;62942;52.462;10.846;2023-03-01T03:30:49;102220;;;
74485;BMP280;62942;52.462;10.846;2023-03-01T03:31:59;102210;;;
74485;BMP280;62942;52.462;10.846;2023-03-01T03:32:59;102210;;;
74485;BMP280;62942;52.462;10.846;2023-03-01T03:33:59;102210;;;
74485;BMP280;62942;52.462;10.846;2023-03-01T03:35:09;102210;;;
74485;BMP280;62942;52.462;10.846;2023-03-01T03:36:20;102200;;;
74485;BMP280;62942;52.462;10.846;2023-03-01T03:37:29;102200;;;
74485;BMP280;62942;52.462;10.846;2023-03-01T03:38:39;102210;;;
74485;BMP280;62942;52.462;10.846;2023-03-01T03:39:39;102200;;;
74485;BMP280;62942;52.462;10.846;2023-03-01T03:40:50;102200;;;
74485;BMP280;62942;52.462;10.846;2023-03-01T03:41:49;102200;;;
74485;BMP280;62942;52.462;10.846;2023-03-01T03:42:59;102200;;;
74485;BMP280;62942;52.462;10.846;2023-03-01T03:44:09;102200;;;
74485;BMP280;62942;52.462;10.846;2023-03-01T03:45:09;102200;;;
74485;BMP280;62942;52.462;10.846;2023-03-01T03:46:19;102200;;;
74485;BMP280;62942;52.462;10.846;2023-03-01T03:47:29;102190;;;
74485;BMP280;62942;52.462;10.846;2023-03-01T03:48:40;102210;;;
74485;BMP280;62942;52.462;10.846;2023-03-01T03:49:49;102210;;;
74485;BMP280;62942;52.462;10.846;2023-03-01T03:50:59;102200;;;
74485;BMP280;62942;52.462;10.846;2023-03-01T03:52:09;102210;;;
74485;BMP280;62942;52.462;10.846;2023-03-01T03:53:10;102210;;;
74485;BMP280;62942;52.462;10.846;2023-03-01T03:54:19;102210;;;
74485;BMP280;62942;52.462;10.846;2023-03-01T03:55:19;102220;;;
74485;BMP280;62942;52.462;10.846;2023-03-01T03:56:29;102220;;;
74485;BMP280;62942;52.462;10.846;2023-03-01T03:57:40;102220;;;
74485;BMP280;62942;52.462;10.846;2023-03-01T03:58:39;102220;;;
74485;BMP280;62942;52.462;10.846;2023-03-01T03:59:49;102210;;;
74485;BMP280;62942;52.462;10.846;2023-03-01T04:00:50;102220;;;
74485;BMP280;62942;52.462;10.846;2023-03-01T04:01:59;102210;;;
74485;BMP280;62942;52.462;10.846;2023-03-01T04:03:09;102230;;;
74485;BMP280;62942;52.462;10.846;2023-03-01T04:04:19;102230;;;
74485;BMP280;62942;52.462;10.846;2023-03-01T04:05:29;102230;;;
74485;BMP280;62942;52.462;10.846;2023-03-01T04:06:29;102230;;;
74485;BMP280;62942;52.462;10.846;2023-03-01T04:07:39;102220;;;
74485;BMP280;62942;52.462;10.846;2023-03-01T04:08:39;102230;;;
74485;BMP280;62942;52.462;10.846;2023-03-01T04:09:49;102230;;;
74485;BMP280;62942;52.462;10.846;2023-03-01T04:10:59;102230;;;
74485;BMP280;62942;52.462;10.846;2023-03-01T04:11:59;102230;;;
74485;BMP280;62942;52.462;10.846;2023-03-01T04:12:59;102230;;;
74485;BMP280;62942;52.462;10.846;2023-03-01T04:14:09;102230;;;
74485;BMP280;62942;52.462;10.846;2023-03-01T04:15:10;102220;;;
74485;BMP280;62942;52.462;10.846;2023-03-01T04:16:19;102230;;;
74485;BMP280;62942;52.462;10.846;2023-03-01T04:17:29;102230;;;
74485;BMP280;62942;52.462;10.846;2023-03-01T04:18:39;102230;;;
74485;BMP280;62942;52.462;10.846;2023-03-01T04:19:49;102230;;;
74485;BMP280;62942;52.462;10.846;2023-03-01T04:20:49;102230;;;
74485;BMP280;62942;52.462;10.846;2023-03-01T04:21:59;102240;;;
74485;BMP280;62942;52.462;10.846;2023-03-01T04:23:10;102230;;;
74485;BMP280;62942;52.462;10.846;2023-03-01T04:24:19;102230;;;
74485;BMP280;62942;52.462;10.846;2023-03-01T04:25:19;102230;;;
74485;BMP280;62942;52.462;10.846;2023-03-01T04:26:19;102230;;;
74485;BMP280;62942;52.462;10.846;2023-03-01T04:27:29;102230;;;
74485;BMP280;62942;52.462;10.846;2023-03-01T04:28:30;102230;;;
74485;BMP280;62942;52.462;10.846;2023-03-01T04:29:39;102230;;;
74485;BMP280;62942;52.462;10.846;2023-03-01T04:30:39;102240;;;
74485;BMP280;62942;52.462;10.846;2023-03-01T04:31:49;102230;;;
74485;BMP280;62942;52.462;10.846;2023-03-01T04:32:59;102230;;;
74485;BMP280;62942;52.462;10.846;2023-03-01T04:33:59;102230;;;
74485;BMP280;62942;52.462;10.846;2023-03-01T04:34:59;102230;;;
74485;BMP280;62942;52.462;10.846;2023-03-01T04:36:09;102230;;;
74485;BMP280;62942;52.462;10.846;2023-03-01T04:37:19;102230;;;
74485;BMP280;62942;52.462;10.846;2023-03-01T04:38:29;102220;;;
74485;BMP280;62942;52.462;10.846;2023-03-01T04:39:29;102220;;;
74485;BMP280;62942;52.462;10.846;2023-03-01T04:40:39;102220;;;
74485;BMP280;62942;52.462;10.846;2023-03-01T04:41:49;102220;;;
74485;BMP280;62942;52.462;10.846;2023-03-01T04:42:49;102210;;;
74485;BMP280;62942;52.462;10.846;2023-03-01T04:43:59;102210;;;
74485;BMP280;62942;52.462;10.846;2023-03-01T04:45:09;102200;;;
74485;BMP280;62942;52.462;10.846;2023-03-01T04:46:20;102210;;;
74485;BMP280;62942;52.462;10.846;2023-03-01T04:47:19;102210;;;
74485;BMP280;62942;52.462;10.846;2023-03-01T04:48:19;102210;;;
74485;BMP280;62942;52.462;10.846;2023-03-01T04:49:29;102220;;;
74485;BMP280;62942;52.462;10.846;2023-03-01T04:50:39;102210;;;
74485;BMP280;62942;52.462;10.846;2023-03-01T04:51:49;102210;;;
74485;BMP280;62942;52.462;10.846;2023-03-01T04:52:49;102210;;;
74485;BMP280;62942;52.462;10.846;2023-03-01T04:53:59;102210;;;
74485;BMP280;62942;52.462;10.846;2023-03-01T04:55:09;102210;;;
74485;BMP280;62942;52.462;10.846;2023-03-01T04:56:19;102200;;;
74485;BMP280;62942;52.462;10.846;2023-03-01T04:57:29;102210;;;
74485;BMP280;62942;52.462;10.846;2023-03-01T04:58:39;102210;;;
74485;BMP280;62942;52.462;10.846;2023-03-01T04:59:39;102210;;;
74485;BMP280;62942;52.462;10.846;2023-03-01T05:00:49;102210;;;
74485;BMP280;62942;52.462;10.846;2023-03-01T05:01:59;102200;;;
74485;BMP280;62942;52.462;10.846;2023-03-01T05:03:09;102210;;;
74485;BMP280;62942;52.462;10.846;2023-03-01T05:04:19;102210;;;
74485;BMP280;62942;52.462;10.846;2023-03-01T05:05:20;102210;;;
74485;BMP280;62942;52.462;10.846;2023-03-01T05:06:29;102210;;;
74485;BMP280;62942;52.462;10.846;2023-03-01T05:07:29;102210;;;
74485;BMP280;62942;52.462;10.846;2023-03-01T05:08:39;102210;;;
74485;BMP280;62942;52.462;10.846;2023-03-01T05:09:49;102210;;;
74485;BMP280;62942;52.462;10.846;2023-03-01T05:10:50;102210;;;
74485;BMP280;62942;52.462;10.846;2023-03-01T05:11:49;102210;;;
74485;BMP280;62942;52.462;10.846;2023-03-01T05:12:59;102210;;;
74485;BMP280;62942;52.462;10.846;2023-03-01T05:14:10;102210;;;
74485;BMP280;62942;52.462;10.846;2023-03-01T05:15:09;102210;;;
74485;BMP280;62942;52.462;10.846;2023-03-01T05:16:19;102210;;;
74485;BMP280;62942;52.462;10.846;2023-03-01T05:17:29;102190;;;
74485;BMP280;62942;52.462;10.846;2023-03-01T05:18:39;102200;;;
74485;BMP280;62942;52.462;10.846;2023-03-01T05:19:49;102190;;;
74485;BMP280;62942;52.462;10.846;2023-03-01T05:21:01;102200;;;
74485;BMP280;62942;52.462;10.846;2023-03-01T05:21:59;102190;;;
74485;BMP280;62942;52.462;10.846;2023-03-01T05:23:09;102190;;;
74485;BMP280;62942;52.462;10.846;2023-03-01T05:24:19;102190;;;
74485;BMP280;62942;52.462;10.846;2023-03-01T05:25:19;102190;;;
74485;BMP280;62942;52.462;10.846;2023-03-01T05:26:29;102210;;;
74485;BMP280;62942;52.462;10.846;2023-03-01T05:27:29;102200;;;
74485;BMP280;62942;52.462;10.846;2023-03-01T05:28:39;102210;;;
74485;BMP280;62942;52.462;10.846;2023-03-01T05:29:39;102200;;;
74485;BMP280;62942;52.462;10.846;2023-03-01T05:30:49;102200;;;
74485;BMP280;62942;52.462;10.846;2023-03-01T05:31:59;102200;;;
74485;BMP280;62942;52.462;10.846;2023-03-01T05:33:09;102200;;;
74485;BMP280;62942;52.462;10.846;2023-03-01T05:34:19;102200;;;
74485;BMP280;62942;52.462;10.846;2023-03-01T05:35:29;102210;;;
74485;BMP280;62942;52.462;10.846;2023-03-01T05:36:39;102210;;;
74485;BMP280;62942;52.462;10.846;2023-03-01T05:37:49;102210;;;
74485;BMP280;62942;52.462;10.846;2023-03-01T05:38:59;102200;;;
74485;BMP280;62942;52.462;10.846;2023-03-01T05:39:59;102200;;;
74485;BMP280;62942;52.462;10.846;2023-03-01T05:41:13;102200;;;
74485;BMP280;62942;52.462;10.846;2023-03-01T05:42:19;102200;;;
74485;BMP280;62942;52.462;10.846;2023-03-01T05:43:19;102200;;;
74485;BMP280;62942;52.462;10.846;2023-03-01T05:44:29;102190;;;
74485;BMP280;62942;52.462;10.846;2023-03-01T05:45:29;102200;;;
74485;BMP280;62942;52.462;10.846;2023-03-01T05:46:39;102200;;;
74485;BMP280;62942;52.462;10.846;2023-03-01T05:47:49;102190;;;
74485;BMP280;62942;52.462;10.846;2023-03-01T05:48:49;102190;;;
74485;BMP280;62942;52.462;10.846;2023-03-01T05:49:59;102200;;;
74485;BMP280;62942;52.462;10.846;2023-03-01T05:50:59;102200;;;
74485;BMP280;62942;52.462;10.846;2023-03-01T05:52:09;102200;;;
74485;BMP280;62942;52.462;10.846;2023-03-01T05:53:19;102200;;;
74485;BMP280;62942;52.462;10.846;2023-03-01T05:54:19;102200;;;
74485;BMP280;62942;52.462;10.846;2023-03-01T05:55:29;102200;;;
74485;BMP280;62942;52.462;10.846;2023-03-01T05:56:29;102210;;;
74485;BMP280;62942;52.462;10.846;2023-03-01T05:57:39;102200;;;
74485;BMP280;62942;52.462;10.846;2023-03-01T05:58:49;102190;;;
74485;BMP280;62942;52.462;10.846;2023-03-01T05:59:49;102190;;;
74485;BMP280;62942;52.462;10.846;2023-03-01T06:00:59;102200;;;
74485;BMP280;62942;52.462;10.846;2023-03-01T06:02:09;102200;;;
74485;BMP280;62942;52.462;10.846;2023-03-01T06:03:09;102190;;;
74485;BMP280;62942;52.462;10.846;2023-03-01T06:04:19;102200;;;
74485;BMP280;62942;52.462;10.846;2023-03-01T06:05:29;102200;;;
74485;BMP280;62942;52.462;10.846;2023-03-01T06:06:29;102190;;;
74485;BMP280;62942;52.462;10.846;2023-03-01T06:07:39;102200;;;
74485;BMP280;62942;52.462;10.846;2023-03-01T06:08:49;102200;;;
74485;BMP280;62942;52.462;10.846;2023-03-01T06:09:49;102200;;;
74485;BMP280;62942;52.462;10.846;2023-03-01T06:10:59;102190;;;
74485;BMP280;62942;52.462;10.846;2023-03-01T06:12:09;102200;;;
74485;BMP280;62942;52.462;10.846;2023-03-01T06:13:19;102200;;;
74485;BMP280;62942;52.462;10.846;2023-03-01T06:14:19;102200;;;
74485;BMP280;62942;52.462;10.846;2023-03-01T06:15:29;102200;;;
74485;BMP280;62942;52.462;10.846;2023-03-01T06:16:29;102200;;;
74485;BMP280;62942;52.462;10.846;2023-03-01T06:17:39;102200;;;
74485;BMP280;62942;52.462;10.846;2023-03-01T06:18:49;102200;;;
74485;BMP280;62942;52.462;10.846;2023-03-01T06:19:49;102190;;;
74485;BMP280;62942;52.462;10.846;2023-03-01T06:20:59;102200;;;
74485;BMP280;62942;52.462;10.846;2023-03-01T06:21:59;102200;;;
74485;BMP280;62942;52.462;10.846;2023-03-01T06:23:09;102200;;;
74485;BMP280;62942;52.462;10.846;2023-03-01T06:24:19;102200;;;
74485;BMP280;62942;52.462;10.846;2023-03-01T06:25:20;102200;;;
74485;BMP280;62942;52.462;10.846;2023-03-01T06:26:29;102200;;;
74485;BMP280;62942;52.462;10.846;2023-03-01T06:27:39;102200;;;
74485;BMP280;62942;52.462;10.846;2023-03-01T06:28:39;102200;;;
74485;BMP280;62942;52.462;10.846;2023-03-01T06:29:49;102200;;;
74485;BMP280;62942;52.462;10.846;2023-03-01T06:30:59;102200;;;
74485;BMP280;62942;52.462;10.846;2023-03-01T06:31:59;102200;;;
74485;BMP280;62942;52.462;10.846;2023-03-01T06:33:09;102210;;;
74485;BMP280;62942;52.462;10.846;2023-03-01T06:34:19;102200;;;
74485;BMP280;62942;52.462;10.846;2023-03-01T06:35:29;102210;;;
74485;BMP280;62942;52.462;10.846;2023-03-01T06:36:39;102210;;;
74485;BMP280;62942;52.462;10.846;2023-03-01T06:37:49;102200;;;
74485;BMP280;62942;52.462;10.846;2023-03-01T06:38:49;102200;;;
74485;BMP280;62942;52.462;10.846;2023-03-01T06:39:49;102200;;;
74485;BMP280;62942;52.462;10.846;2023-03-01T06:40:59;102200;;;
74485;BMP280;62942;52.462;10.846;2023-03-01T06:42:09;102200;;;
74485;BMP280;62942;52.462;10.846;2023-03-01T06:43:09;102200;;;
74485;BMP280;62942;52.462;10.846;2023-03-01T06:44:19;102200;;;
74485;BMP280;62942;52.462;10.846;2023-03-01T06:45:29;102210;;;
74485;BMP280;62942;52.462;10.846;2023-03-01T06:46:39;102200;;;
74485;BMP280;62942;52.462;10.846;2023-03-01T06:47:39;102200;;;
74485;BMP280;62942;52.462;10.846;2023-03-01T06:48:49;102200;;;
74485;BMP280;62942;52.462;10.846;2023-03-01T06:49:59;102200;;;
74485;BMP280;62942;52.462;10.846;2023-03-01T06:51:09;102200;;;
74485;BMP280;62942;52.462;10.846;2023-03-01T06:52:19;102210;;;
74485;BMP280;62942;52.462;10.846;2023-03-01T06:53:29;102200;;;
74485;BMP280;62942;52.462;10.846;2023-03-01T06:54:39;102200;;;
74485;BMP280;62942;52.462;10.846;2023-03-01T06:55:39;102200;;;
74485;BMP280;62942;52.462;10.846;2023-03-01T06:56:39;102200;;;
74485;BMP280;62942;52.462;10.846;2023-03-01T06:57:39;102200;;;
74485;BMP280;62942;52.462;10.846;2023-03-01T06:58:39;102200;;;
74485;BMP280;62942;52.462;10.846;2023-03-01T06:59:49;102200;;;
74485;BMP280;62942;52.462;10.846;2023-03-01T07:00:59;102200;;;
74485;BMP280;62942;52.462;10.846;2023-03-01T07:01:59;102200;;;
74485;BMP280;62942;52.462;10.846;2023-03-01T07:03:09;102200;;;
74485;BMP280;62942;52.462;10.846;2023-03-01T07:04:09;102200;;;